createdAt,value
2023-01-22T00:03:12.123Z,86.20
2023-01-22T00:08:13.590Z,86.47
2023-01-22T00:13:15.113Z,86.53
2023-01-22T00:18:17.792Z,86.52
2023-01-22T00:23:20.358Z,86.39
2023-01-22T00:28:21.828Z,86.53
2023-01-22T00:33:23.319Z,86.20
2023-01-22T00:38:24.811Z,86.16
2023-01-22T00:43:26.417Z,86.25
2023-01-22T00:48:28.347Z,86.10
2023-01-22T00:53:29.863Z,86.00
2023-01-22T00:58:31.399Z,85.87
2023-01-22T01:03:35.123Z,86.00
2023-01-22T01:08:39.421Z,85.94
2023-01-22T01:13:43.176Z,85.96
2023-01-22T01:18:45.243Z,86.04
2023-01-22T01:23:46.985Z,85.78
2023-01-22T01:28:49.353Z,85.83
2023-01-22T01:33:50.838Z,86.01
2023-01-22T01:38:52.920Z,85.92
2023-01-22T01:44:06.447Z,85.67
2023-01-22T01:49:16.193Z,85.44
2023-01-22T01:54:18.108Z,85.39
2023-01-22T01:59:21.711Z,85.68
2023-01-22T02:04:24.063Z,85.67
2023-01-22T02:09:27.202Z,85.96
2023-01-22T02:14:33.281Z,86.01
2023-01-22T02:19:35.210Z,85.66
2023-01-22T02:24:36.753Z,85.80
2023-01-22T02:29:38.756Z,85.82
2023-01-22T02:34:40.689Z,85.82
2023-01-22T02:39:42.189Z,86.04
2023-01-22T02:44:43.791Z,85.90
2023-01-22T02:49:45.308Z,85.54
2023-01-22T02:54:46.815Z,85.77
2023-01-22T02:59:48.347Z,85.58
2023-01-22T03:04:50.322Z,85.32
2023-01-22T03:09:51.929Z,85.78
2023-01-22T03:15:11.975Z,85.69
2023-01-22T03:20:31.947Z,85.43
2023-01-22T03:25:33.431Z,85.81
2023-01-22T03:30:34.946Z,85.87
2023-01-22T03:35:36.455Z,85.81
2023-01-22T03:40:38.080Z,85.98
2023-01-22T03:45:39.624Z,85.89
2023-01-22T03:50:41.230Z,86.16
2023-01-22T03:55:42.740Z,86.32
2023-01-22T04:00:44.210Z,86.18
2023-01-22T04:05:45.693Z,86.23
2023-01-22T04:10:47.306Z,86.31
2023-01-22T04:15:48.811Z,86.10
2023-01-22T04:20:51.796Z,85.93
2023-01-22T04:25:54.195Z,85.84
2023-01-22T04:30:56.416Z,85.99
2023-01-22T04:35:58.056Z,85.81
2023-01-22T04:40:59.590Z,85.80
2023-01-22T04:46:01.260Z,85.87
2023-01-22T04:51:02.859Z,86.02
2023-01-22T04:56:05.127Z,86.34
2023-01-22T05:01:06.649Z,86.21
2023-01-22T05:06:08.496Z,86.36
2023-01-22T05:11:09.969Z,86.35
2023-01-22T05:16:11.535Z,86.36
2023-01-22T05:21:13.036Z,86.24
2023-01-22T05:26:14.580Z,86.23
2023-01-22T05:31:16.172Z,86.29
2023-01-22T05:36:17.827Z,86.22
2023-01-22T05:41:19.508Z,86.27
2023-01-22T05:46:21.048Z,86.21
2023-01-22T05:51:22.822Z,85.92
2023-01-22T05:56:24.442Z,85.83
2023-01-22T06:01:26.247Z,85.90
2023-01-22T06:06:27.790Z,85.88
2023-01-22T06:11:29.275Z,85.75
2023-01-22T06:16:30.792Z,85.77
2023-01-22T06:21:32.406Z,85.86
2023-01-22T06:26:34.099Z,85.91
2023-01-22T06:31:35.732Z,85.73
2023-01-22T06:36:37.236Z,85.51
2023-01-22T06:41:38.727Z,85.55
2023-01-22T06:46:40.226Z,85.60
2023-01-22T06:51:42.108Z,85.27
2023-01-22T06:56:43.604Z,85.33
2023-01-22T07:01:45.175Z,85.47
2023-01-22T07:06:46.798Z,85.36
2023-01-22T07:11:48.509Z,85.31
2023-01-22T07:16:50.067Z,85.35
2023-01-22T07:21:51.575Z,85.27
2023-01-22T07:26:53.075Z,85.41
2023-01-22T07:31:54.753Z,85.26
2023-01-22T07:36:56.250Z,85.10
2023-01-22T07:42:01.354Z,85.11
2023-01-22T07:47:03.115Z,84.74
2023-01-22T07:52:04.724Z,84.73
2023-01-22T07:57:06.195Z,84.73
2023-01-22T08:02:11.929Z,84.38
2023-01-22T08:07:17.656Z,84.62
2023-01-22T08:12:19.308Z,84.55
2023-01-22T08:17:20.809Z,84.48
2023-01-22T08:22:22.333Z,84.55
2023-01-22T08:27:23.832Z,84.52
2023-01-22T08:32:25.521Z,84.40
2023-01-22T08:37:27.072Z,84.27
2023-01-22T08:42:28.713Z,84.22
2023-01-22T08:47:30.315Z,84.35
2023-01-22T08:52:31.813Z,84.40
2023-01-22T08:57:33.434Z,84.29
2023-01-22T09:02:34.917Z,84.20
2023-01-22T09:07:36.534Z,83.99
2023-01-22T09:12:39.823Z,84.01
2023-01-22T09:17:41.958Z,84.03
2023-01-22T09:22:48.149Z,83.92
2023-01-22T09:27:49.668Z,83.68
2023-01-22T09:32:51.254Z,83.52
2023-01-22T09:37:52.784Z,83.19
2023-01-22T09:43:20.540Z,83.21
2023-01-22T09:48:27.403Z,83.35
2023-01-22T09:53:30.009Z,83.09
2023-01-22T09:58:35.776Z,83.04
2023-01-22T10:03:53.089Z,82.98
2023-01-22T10:09:02.059Z,82.92
2023-01-22T10:14:08.144Z,82.57
2023-01-22T10:19:27.812Z,82.36
2023-01-22T10:24:30.249Z,82.21
2023-01-22T10:29:34.834Z,82.11
2023-01-22T10:34:37.145Z,81.71
2023-01-22T10:39:40.678Z,81.74
2023-01-22T10:44:42.591Z,81.53
2023-01-22T10:49:44.715Z,81.47
2023-01-22T10:54:53.858Z,81.29
2023-01-22T11:00:01.385Z,81.04
2023-01-22T11:05:24.249Z,81.11
2023-01-22T11:10:49.620Z,80.83
2023-01-22T11:16:09.729Z,80.80
2023-01-22T11:21:25.669Z,81.03
2023-01-22T11:27:06.838Z,80.89
2023-01-22T11:32:34.471Z,80.50
2023-01-22T11:37:48.112Z,80.57
2023-01-22T11:43:20.217Z,80.57
2023-01-22T11:48:34.975Z,80.65
2023-01-22T11:53:58.811Z,80.73
2023-01-22T11:59:10.196Z,80.80
2023-01-22T12:04:26.718Z,80.98
2023-01-22T12:09:48.541Z,80.59
2023-01-22T12:15:08.994Z,80.80
2023-01-22T12:20:31.969Z,80.86
2023-01-22T12:25:33.411Z,81.05
2023-01-22T12:30:47.619Z,81.23
2023-01-22T12:35:51.740Z,81.18
2023-01-22T12:41:11.671Z,81.02
2023-01-22T12:46:48.757Z,81.36
2023-01-22T12:51:52.390Z,81.06
2023-01-22T12:57:12.064Z,80.86
2023-01-22T13:02:22.996Z,80.92
2023-01-22T13:07:37.319Z,80.96
2023-01-22T13:12:47.758Z,81.14
2023-01-22T13:18:06.607Z,81.14
2023-01-22T13:23:13.092Z,81.17
2023-01-22T13:28:18.907Z,80.88
2023-01-22T13:33:20.430Z,81.07
2023-01-22T13:38:29.204Z,81.05
2023-01-22T13:43:31.136Z,80.76
2023-01-22T13:48:32.951Z,80.94
2023-01-22T13:53:48.883Z,80.82
2023-01-22T13:58:52.366Z,81.15
2023-01-22T14:04:02.162Z,80.91
2023-01-22T14:09:03.926Z,80.87
2023-01-22T14:14:16.017Z,81.31
2023-01-22T14:19:17.874Z,81.17
2023-01-22T14:24:19.389Z,81.29
2023-01-22T14:29:20.909Z,81.44
2023-01-22T14:34:22.826Z,81.30
2023-01-22T14:39:24.464Z,81.24
2023-01-22T14:44:26.083Z,81.39
2023-01-22T14:49:27.625Z,81.25
2023-01-22T14:54:29.110Z,81.34
2023-01-22T14:59:31.043Z,81.47
2023-01-22T15:04:32.671Z,81.32
2023-01-22T15:09:34.256Z,81.65
2023-01-22T15:14:35.821Z,81.40
2023-01-22T15:19:41.489Z,81.61
2023-01-22T15:24:43.921Z,81.69
2023-01-22T15:29:46.237Z,81.87
2023-01-22T15:34:47.718Z,82.04
2023-01-22T15:39:49.634Z,82.05
2023-01-22T15:44:51.121Z,82.27
2023-01-22T15:49:52.620Z,82.65
2023-01-22T15:54:54.324Z,82.55
2023-01-22T15:59:55.844Z,82.86
2023-01-22T16:04:57.360Z,82.75
2023-01-22T16:09:59.031Z,82.88
2023-01-22T16:15:00.575Z,83.12
2023-01-22T16:20:02.142Z,83.16
2023-01-22T16:25:03.981Z,83.35
2023-01-22T16:30:07.504Z,83.15
2023-01-22T16:35:10.743Z,83.31
2023-01-22T16:40:13.484Z,83.18
2023-01-22T16:45:14.982Z,83.32
2023-01-22T16:50:17.582Z,83.31
2023-01-22T16:55:19.413Z,83.23
2023-01-22T17:00:21.243Z,83.58
2023-01-22T17:05:22.984Z,83.55
2023-01-22T17:10:24.722Z,83.56
2023-01-22T17:15:26.252Z,83.62
2023-01-22T17:20:28.012Z,83.99
2023-01-22T17:25:30.040Z,83.85
2023-01-22T17:30:31.537Z,84.51
2023-01-22T17:35:33.193Z,84.40
2023-01-22T17:40:37.541Z,84.95
2023-01-22T17:45:40.056Z,84.76
2023-01-22T17:50:41.579Z,84.86
2023-01-22T17:55:43.049Z,85.18
2023-01-22T18:00:45.316Z,85.48
2023-01-22T18:05:47.519Z,85.63
2023-01-22T18:10:49.029Z,85.58
2023-01-22T18:15:51.852Z,85.92
2023-01-22T18:20:53.536Z,85.93
2023-01-22T18:25:58.039Z,86.07
2023-01-22T18:31:10.425Z,86.06
2023-01-22T18:36:14.815Z,86.04
2023-01-22T18:41:23.899Z,85.69
2023-01-22T18:46:33.152Z,85.61
2023-01-22T18:51:34.880Z,85.90
2023-01-22T18:56:37.492Z,85.56
2023-01-22T19:01:40.811Z,85.90
2023-01-22T19:06:44.196Z,85.75
2023-01-22T19:11:48.044Z,85.35
2023-01-22T19:16:53.220Z,85.51
2023-01-22T19:21:55.860Z,85.40
2023-01-22T19:26:58.083Z,85.29
2023-01-22T19:31:59.738Z,85.18
2023-01-22T19:37:02.551Z,85.02
2023-01-22T19:42:06.929Z,85.14
2023-01-22T19:47:11.258Z,85.63
2023-01-22T19:52:13.526Z,85.55
2023-01-22T19:57:15.806Z,85.69
2023-01-22T20:02:20.756Z,85.48
2023-01-22T20:07:22.684Z,85.37
2023-01-22T20:12:24.205Z,85.65
2023-01-22T20:17:25.825Z,85.44
2023-01-22T20:22:27.578Z,85.43
2023-01-22T20:27:29.285Z,85.51
2023-01-22T20:32:30.931Z,85.37
2023-01-22T20:37:33.358Z,85.51
2023-01-22T20:42:34.881Z,85.50
2023-01-22T20:47:36.912Z,85.41
2023-01-22T20:52:38.480Z,85.31
2023-01-22T20:57:40.024Z,85.31
2023-01-22T21:02:41.551Z,85.14
2023-01-22T21:07:43.033Z,84.94
2023-01-22T21:12:46.825Z,85.19
2023-01-22T21:17:48.485Z,85.19
2023-01-22T21:22:50.364Z,85.11
2023-01-22T21:27:51.941Z,85.31
2023-01-22T21:32:53.487Z,85.24
2023-01-22T21:37:55.095Z,84.96
2023-01-22T21:43:15.063Z,84.98
2023-01-22T21:48:16.655Z,85.28
2023-01-22T21:53:18.142Z,85.54
2023-01-22T21:58:20.707Z,85.54
2023-01-22T22:03:22.249Z,85.43
2023-01-22T22:08:23.854Z,85.73
2023-01-22T22:13:25.388Z,85.51
2023-01-22T22:18:27.557Z,85.45
2023-01-22T22:23:29.112Z,85.41
2023-01-22T22:28:31.424Z,85.36
2023-01-22T22:33:33.031Z,85.33
2023-01-22T22:38:35.045Z,85.37
2023-01-22T22:43:45.154Z,85.65
2023-01-22T22:48:47.226Z,85.43
2023-01-22T22:53:51.894Z,85.42
2023-01-22T22:58:53.873Z,85.45
2023-01-22T23:03:55.485Z,85.28
2023-01-22T23:08:59.023Z,85.27
2023-01-22T23:14:02.563Z,85.98
2023-01-22T23:19:07.408Z,85.51
2023-01-22T23:24:11.077Z,85.78
2023-01-22T23:29:15.576Z,86.10
2023-01-22T23:34:21.110Z,86.17
2023-01-22T23:39:23.169Z,85.95
2023-01-22T23:44:24.968Z,86.28
2023-01-22T23:49:26.457Z,86.44
2023-01-22T23:54:28.302Z,86.27
2023-01-22T23:59:29.799Z,86.37
